sensor_id;sensor_type;location;lat;lon;timestamp;pressure;altitude;pressure_sealevel;temperature;humidity
72486;BME280;60509;47.308;-122.428;2023-05-07T00:02:19;100452.96;;;18.43;28.34
72486;BME280;60509;47.308;-122.428;2023-05-07T00:04:44;100453.00;;;18.43;28.59
72486;BME280;60509;47.308;-122.428;2023-05-07T00:07:10;100451.84;;;18.22;28.12
72486;BME280;60509;47.308;-122.428;2023-05-07T00:09:37;100453.08;;;17.92;27.70
72486;BME280;60509;47.308;-122.428;2023-05-07T00:12:03;100450.56;;;17.99;27.48
72486;BME280;60509;47.308;-122.428;2023-05-07T00:14:28;100457.46;;;17.71;28.52
72486;BME280;60509;47.308;-122.428;2023-05-07T00:16:54;100456.10;;;17.88;28.23
72486;BME280;60509;47.308;-122.428;2023-05-07T00:19:20;100457.08;;;17.32;28.43
72486;BME280;60509;47.308;-122.428;2023-05-07T00:21:46;100459.96;;;17.85;28.40
72486;BME280;60509;47.308;-122.428;2023-05-07T00:24:12;100460.08;;;18.24;28.25
72486;BME280;60509;47.308;-122.428;2023-05-07T00:26:38;100462.97;;;18.35;28.49
72486;BME280;60509;47.308;-122.428;2023-05-07T00:29:04;100461.06;;;17.78;28.41
72486;BME280;60509;47.308;-122.428;2023-05-07T00:31:29;100461.60;;;17.87;27.86
72486;BME280;60509;47.308;-122.428;2023-05-07T00:33:55;100459.15;;;17.49;27.62
72486;BME280;60509;47.308;-122.428;2023-05-07T00:36:21;100462.60;;;17.89;28.63
72486;BME280;60509;47.308;-122.428;2023-05-07T00:38:47;100460.89;;;17.68;28.47
72486;BME280;60509;47.308;-122.428;2023-05-07T00:41:13;100457.60;;;17.74;28.43
72486;BME280;60509;47.308;-122.428;2023-05-07T00:43:39;100460.07;;;18.16;28.16
72486;BME280;60509;47.308;-122.428;2023-05-07T00:46:05;100459.50;;;18.48;28.13
72486;BME280;60509;47.308;-122.428;2023-05-07T00:48:31;100461.01;;;18.71;28.51
72486;BME280;60509;47.308;-122.428;2023-05-07T00:50:57;100459.83;;;18.54;27.50
72486;BME280;60509;47.308;-122.428;2023-05-07T00:53:23;100457.54;;;18.66;26.91
72486;BME280;60509;47.308;-122.428;2023-05-07T00:55:49;100458.46;;;17.95;26.95
72486;BME280;60509;47.308;-122.428;2023-05-07T00:58:16;100458.05;;;18.18;27.68
72486;BME280;60509;47.308;-122.428;2023-05-07T01:00:41;100458.23;;;18.62;27.31
72486;BME280;60509;47.308;-122.428;2023-05-07T01:03:07;100461.76;;;18.36;27.49
72486;BME280;60509;47.308;-122.428;2023-05-07T01:05:33;100458.85;;;18.42;27.53
72486;BME280;60509;47.308;-122.428;2023-05-07T01:07:59;100461.95;;;18.64;27.44
72486;BME280;60509;47.308;-122.428;2023-05-07T01:10:25;100462.14;;;18.81;26.78
72486;BME280;60509;47.308;-122.428;2023-05-07T01:12:51;100460.87;;;18.27;26.82
72486;BME280;60509;47.308;-122.428;2023-05-07T01:15:17;100456.38;;;17.88;26.25
72486;BME280;60509;47.308;-122.428;2023-05-07T01:17:43;100458.88;;;18.17;27.51
72486;BME280;60509;47.308;-122.428;2023-05-07T01:20:09;100460.76;;;17.63;27.44
72486;BME280;60509;47.308;-122.428;2023-05-07T01:22:35;100460.05;;;18.11;27.43
72486;BME280;60509;47.308;-122.428;2023-05-07T01:25:00;100456.56;;;18.97;26.96
72486;BME280;60509;47.308;-122.428;2023-05-07T01:27:26;100459.97;;;18.73;27.04
72486;BME280;60509;47.308;-122.428;2023-05-07T01:29:52;100459.96;;;19.10;26.83
72486;BME280;60509;47.308;-122.428;2023-05-07T01:32:21;100460.69;;;18.41;26.44
72486;BME280;60509;47.308;-122.428;2023-05-07T01:34:45;100458.80;;;17.90;26.65
72486;BME280;60509;47.308;-122.428;2023-05-07T01:37:10;100458.21;;;17.65;26.13
72486;BME280;60509;47.308;-122.428;2023-05-07T01:39:37;100460.49;;;17.00;27.74
72486;BME280;60509;47.308;-122.428;2023-05-07T01:42:01;100460.19;;;17.31;27.33
72486;BME280;60509;47.308;-122.428;2023-05-07T01:44:28;100460.70;;;17.85;27.02
72486;BME280;60509;47.308;-122.428;2023-05-07T01:46:54;100462.60;;;18.87;26.66
72486;BME280;60509;47.308;-122.428;2023-05-07T01:49:19;100466.67;;;18.67;26.71
72486;BME280;60509;47.308;-122.428;2023-05-07T01:51:45;100465.95;;;18.95;26.68
72486;BME280;60509;47.308;-122.428;2023-05-07T01:54:11;100472.48;;;18.79;26.80
72486;BME280;60509;47.308;-122.428;2023-05-07T01:56:37;100468.84;;;18.96;26.90
72486;BME280;60509;47.308;-122.428;2023-05-07T01:59:03;100470.72;;;18.73;27.12
72486;BME280;60509;47.308;-122.428;2023-05-07T02:01:29;100471.34;;;18.71;27.12
72486;BME280;60509;47.308;-122.428;2023-05-07T02:03:54;100469.95;;;18.82;27.22
72486;BME280;60509;47.308;-122.428;2023-05-07T02:06:20;100474.83;;;18.89;27.27
72486;BME280;60509;47.308;-122.428;2023-05-07T02:08:46;100478.41;;;18.76;27.45
72486;BME280;60509;47.308;-122.428;2023-05-07T02:11:12;100478.53;;;18.62;27.60
72486;BME280;60509;47.308;-122.428;2023-05-07T02:13:38;100476.97;;;19.05;27.33
72486;BME280;60509;47.308;-122.428;2023-05-07T02:16:04;100478.93;;;18.71;27.60
72486;BME280;60509;47.308;-122.428;2023-05-07T02:18:30;100479.35;;;18.33;27.95
72486;BME280;60509;47.308;-122.428;2023-05-07T02:20:56;100479.52;;;18.24;28.08
72486;BME280;60509;47.308;-122.428;2023-05-07T02:23:22;100481.67;;;18.66;27.77
72486;BME280;60509;47.308;-122.428;2023-05-07T02:25:47;100483.09;;;18.34;28.06
72486;BME280;60509;47.308;-122.428;2023-05-07T02:28:14;100481.62;;;18.10;28.19
72486;BME280;60509;47.308;-122.428;2023-05-07T02:30:39;100484.74;;;18.26;28.18
72486;BME280;60509;47.308;-122.428;2023-05-07T02:33:05;100485.51;;;18.23;28.27
72486;BME280;60509;47.308;-122.428;2023-05-07T02:35:31;100488.06;;;18.09;28.42
72486;BME280;60509;47.308;-122.428;2023-05-07T02:37:57;100490.12;;;18.19;28.41
72486;BME280;60509;47.308;-122.428;2023-05-07T02:40:23;100491.28;;;18.61;28.06
72486;BME280;60509;47.308;-122.428;2023-05-07T02:42:49;100489.71;;;18.77;28.16
72486;BME280;60509;47.308;-122.428;2023-05-07T02:45:15;100493.17;;;18.74;28.28
72486;BME280;60509;47.308;-122.428;2023-05-07T02:47:40;100493.17;;;18.70;28.24
72486;BME280;60509;47.308;-122.428;2023-05-07T02:50:07;100491.30;;;18.49;28.45
72486;BME280;60509;47.308;-122.428;2023-05-07T02:52:32;100493.84;;;18.48;28.43
72486;BME280;60509;47.308;-122.428;2023-05-07T02:54:58;100496.49;;;18.47;28.56
72486;BME280;60509;47.308;-122.428;2023-05-07T02:57:24;100497.74;;;18.75;28.36
72486;BME280;60509;47.308;-122.428;2023-05-07T02:59:50;100497.36;;;18.39;28.59
72486;BME280;60509;47.308;-122.428;2023-05-07T03:02:16;100501.58;;;18.53;28.54
72486;BME280;60509;47.308;-122.428;2023-05-07T03:04:42;100504.23;;;18.29;28.64
72486;BME280;60509;47.308;-122.428;2023-05-07T03:07:07;100507.11;;;18.15;28.68
72486;BME280;60509;47.308;-122.428;2023-05-07T03:09:33;100506.80;;;18.22;28.66
72486;BME280;60509;47.308;-122.428;2023-05-07T03:11:59;100507.78;;;18.22;28.62
72486;BME280;60509;47.308;-122.428;2023-05-07T03:14:25;100509.56;;;18.30;28.57
72486;BME280;60509;47.308;-122.428;2023-05-07T03:16:51;100508.87;;;18.36;28.66
72486;BME280;60509;47.308;-122.428;2023-05-07T03:19:17;100510.34;;;18.20;28.66
72486;BME280;60509;47.308;-122.428;2023-05-07T03:21:43;100516.61;;;18.18;28.72
72486;BME280;60509;47.308;-122.428;2023-05-07T03:24:09;100517.66;;;18.42;28.62
72486;BME280;60509;47.308;-122.428;2023-05-07T03:26:34;100515.54;;;18.20;28.71
72486;BME280;60509;47.308;-122.428;2023-05-07T03:29:00;100518.22;;;18.17;28.75
72486;BME280;60509;47.308;-122.428;2023-05-07T03:31:26;100519.12;;;18.03;28.80
72486;BME280;60509;47.308;-122.428;2023-05-07T03:33:53;100518.87;;;18.12;28.73
72486;BME280;60509;47.308;-122.428;2023-05-07T03:36:18;100523.46;;;18.16;28.86
72486;BME280;60509;47.308;-122.428;2023-05-07T03:38:44;100522.97;;;18.36;28.79
72486;BME280;60509;47.308;-122.428;2023-05-07T03:41:10;100521.90;;;18.44;28.66
72486;BME280;60509;47.308;-122.428;2023-05-07T03:43:36;100524.68;;;18.09;28.84
72486;BME280;60509;47.308;-122.428;2023-05-07T03:46:01;100523.88;;;18.38;28.71
72486;BME280;60509;47.308;-122.428;2023-05-07T03:48:27;100528.05;;;18.19;28.67
72486;BME280;60509;47.308;-122.428;2023-05-07T03:50:53;100530.89;;;18.37;28.73
72486;BME280;60509;47.308;-122.428;2023-05-07T03:53:19;100531.71;;;18.28;28.77
72486;BME280;60509;47.308;-122.428;2023-05-07T03:55:45;100535.54;;;18.15;28.79
72486;BME280;60509;47.308;-122.428;2023-05-07T03:58:11;100535.60;;;18.32;28.86
72486;BME280;60509;47.308;-122.428;2023-05-07T04:00:37;100538.47;;;17.95;28.83
72486;BME280;60509;47.308;-122.428;2023-05-07T04:03:03;100542.70;;;17.86;29.03
72486;BME280;60509;47.308;-122.428;2023-05-07T04:05:29;100544.40;;;18.09;28.85
72486;BME280;60509;47.308;-122.428;2023-05-07T04:07:54;100545.59;;;18.17;28.91
72486;BME280;60509;47.308;-122.428;2023-05-07T04:10:20;100550.47;;;18.06;28.74
72486;BME280;60509;47.308;-122.428;2023-05-07T04:12:46;100552.44;;;17.85;28.95
72486;BME280;60509;47.308;-122.428;2023-05-07T04:15:12;100556.40;;;17.95;28.92
72486;BME280;60509;47.308;-122.428;2023-05-07T04:17:38;100557.90;;;17.98;29.02
72486;BME280;60509;47.308;-122.428;2023-05-07T04:20:05;100557.14;;;18.02;29.05
72486;BME280;60509;47.308;-122.428;2023-05-07T04:22:30;100557.94;;;17.80;29.20
72486;BME280;60509;47.308;-122.428;2023-05-07T04:24:56;100557.18;;;18.07;29.16
72486;BME280;60509;47.308;-122.428;2023-05-07T04:27:21;100558.84;;;18.03;29.12
72486;BME280;60509;47.308;-122.428;2023-05-07T04:29:47;100559.17;;;18.21;28.94
72486;BME280;60509;47.308;-122.428;2023-05-07T04:32:13;100558.87;;;18.15;28.92
72486;BME280;60509;47.308;-122.428;2023-05-07T04:34:39;100559.72;;;18.00;29.01
72486;BME280;60509;47.308;-122.428;2023-05-07T04:37:05;100562.73;;;17.92;28.87
72486;BME280;60509;47.308;-122.428;2023-05-07T04:39:31;100563.90;;;17.68;29.16
72486;BME280;60509;47.308;-122.428;2023-05-07T04:41:57;100562.04;;;17.87;29.20
72486;BME280;60509;47.308;-122.428;2023-05-07T04:44:23;100567.46;;;17.94;29.16
72486;BME280;60509;47.308;-122.428;2023-05-07T04:46:49;100567.75;;;17.85;29.12
72486;BME280;60509;47.308;-122.428;2023-05-07T04:49:15;100567.90;;;17.80;29.25
72486;BME280;60509;47.308;-122.428;2023-05-07T04:51:40;100568.05;;;17.85;29.42
72486;BME280;60509;47.308;-122.428;2023-05-07T04:54:06;100567.75;;;17.70;29.39
72486;BME280;60509;47.308;-122.428;2023-05-07T04:56:32;100566.87;;;17.94;29.20
72486;BME280;60509;47.308;-122.428;2023-05-07T04:58:58;100566.10;;;17.83;29.22
72486;BME280;60509;47.308;-122.428;2023-05-07T05:01:24;100567.66;;;17.85;29.36
72486;BME280;60509;47.308;-122.428;2023-05-07T05:03:50;100568.12;;;17.87;29.26
72486;BME280;60509;47.308;-122.428;2023-05-07T05:06:16;100572.17;;;17.78;29.18
72486;BME280;60509;47.308;-122.428;2023-05-07T05:08:42;100571.89;;;17.60;29.29
72486;BME280;60509;47.308;-122.428;2023-05-07T05:11:08;100574.25;;;17.77;29.19
72486;BME280;60509;47.308;-122.428;2023-05-07T05:13:33;100576.34;;;17.76;29.32
72486;BME280;60509;47.308;-122.428;2023-05-07T05:15:59;100577.74;;;17.68;29.52
72486;BME280;60509;47.308;-122.428;2023-05-07T05:18:25;100579.85;;;17.56;29.67
72486;BME280;60509;47.308;-122.428;2023-05-07T05:20:52;100581.56;;;17.62;29.62
72486;BME280;60509;47.308;-122.428;2023-05-07T05:23:17;100581.82;;;17.48;29.76
72486;BME280;60509;47.308;-122.428;2023-05-07T05:25:43;100582.83;;;17.55;29.64
72486;BME280;60509;47.308;-122.428;2023-05-07T05:28:09;100582.52;;;17.50;29.71
72486;BME280;60509;47.308;-122.428;2023-05-07T05:30:35;100584.88;;;17.61;29.59
72486;BME280;60509;47.308;-122.428;2023-05-07T05:33:01;100582.36;;;17.78;29.50
72486;BME280;60509;47.308;-122.428;2023-05-07T05:35:27;100584.60;;;17.75;29.55
72486;BME280;60509;47.308;-122.428;2023-05-07T05:37:53;100584.58;;;17.41;29.66
72486;BME280;60509;47.308;-122.428;2023-05-07T05:40:18;100585.97;;;17.63;29.54
72486;BME280;60509;47.308;-122.428;2023-05-07T05:42:44;100586.66;;;17.87;30.03
72486;BME280;60509;47.308;-122.428;2023-05-07T05:45:10;100585.03;;;17.83;29.78
72486;BME280;60509;47.308;-122.428;2023-05-07T05:47:36;100587.24;;;17.68;30.01
72486;BME280;60509;47.308;-122.428;2023-05-07T05:50:02;100587.82;;;17.55;29.95
72486;BME280;60509;47.308;-122.428;2023-05-07T05:52:28;100589.66;;;17.40;29.89
72486;BME280;60509;47.308;-122.428;2023-05-07T05:54:54;100588.11;;;17.33;29.88
72486;BME280;60509;47.308;-122.428;2023-05-07T05:57:20;100591.20;;;17.70;29.96
72486;BME280;60509;47.308;-122.428;2023-05-07T05:59:46;100592.36;;;17.65;29.85
72486;BME280;60509;47.308;-122.428;2023-05-07T06:02:12;100593.39;;;17.43;29.86
72486;BME280;60509;47.308;-122.428;2023-05-07T06:04:37;100593.04;;;17.23;29.94
72486;BME280;60509;47.308;-122.428;2023-05-07T06:07:03;100590.75;;;17.61;29.79
72486;BME280;60509;47.308;-122.428;2023-05-07T06:09:29;100588.41;;;17.05;29.90
72486;BME280;60509;47.308;-122.428;2023-05-07T06:11:55;100588.80;;;17.25;29.62
72486;BME280;60509;47.308;-122.428;2023-05-07T06:14:21;100587.02;;;17.28;29.58
72486;BME280;60509;47.308;-122.428;2023-05-07T06:16:47;100588.12;;;17.21;29.84
72486;BME280;60509;47.308;-122.428;2023-05-07T06:19:13;100587.54;;;17.24;29.69
72486;BME280;60509;47.308;-122.428;2023-05-07T06:21:40;100589.62;;;17.22;29.82
72486;BME280;60509;47.308;-122.428;2023-05-07T06:24:05;100595.02;;;17.43;29.74
72486;BME280;60509;47.308;-122.428;2023-05-07T06:26:30;100596.04;;;17.45;29.61
72486;BME280;60509;47.308;-122.428;2023-05-07T06:28:56;100598.26;;;17.24;29.52
72486;BME280;60509;47.308;-122.428;2023-05-07T06:31:22;100600.10;;;17.13;29.53
72486;BME280;60509;47.308;-122.428;2023-05-07T06:33:48;100603.04;;;17.09;29.57
72486;BME280;60509;47.308;-122.428;2023-05-07T06:36:14;100606.40;;;17.26;29.49
72486;BME280;60509;47.308;-122.428;2023-05-07T06:38:40;100609.32;;;17.17;29.67
72486;BME280;60509;47.308;-122.428;2023-05-07T06:41:06;100607.95;;;17.20;29.41
72486;BME280;60509;47.308;-122.428;2023-05-07T06:43:32;100606.11;;;17.29;29.45
72486;BME280;60509;47.308;-122.428;2023-05-07T06:45:57;100603.20;;;17.26;29.41
72486;BME280;60509;47.308;-122.428;2023-05-07T06:48:23;100602.53;;;17.13;29.37
72486;BME280;60509;47.308;-122.428;2023-05-07T06:50:49;100601.44;;;17.17;29.37
72486;BME280;60509;47.308;-122.428;2023-05-07T06:53:15;100607.12;;;17.16;29.38
72486;BME280;60509;47.308;-122.428;2023-05-07T06:55:41;100609.22;;;16.95;29.31
72486;BME280;60509;47.308;-122.428;2023-05-07T06:58:07;100614.33;;;17.18;29.33
72486;BME280;60509;47.308;-122.428;2023-05-07T07:00:33;100614.53;;;16.86;29.32
72486;BME280;60509;47.308;-122.428;2023-05-07T07:02:59;100614.36;;;17.19;29.33
72486;BME280;60509;47.308;-122.428;2023-05-07T07:05:24;100617.30;;;17.45;29.37
72486;BME280;60509;47.308;-122.428;2023-05-07T07:07:50;100620.88;;;17.18;29.24
72486;BME280;60509;47.308;-122.428;2023-05-07T07:10:17;100623.42;;;17.38;29.36
72486;BME280;60509;47.308;-122.428;2023-05-07T07:12:42;100625.17;;;16.87;29.38
72486;BME280;60509;47.308;-122.428;2023-05-07T07:15:09;100627.67;;;16.82;29.32
72486;BME280;60509;47.308;-122.428;2023-05-07T07:17:34;100630.25;;;17.24;29.43
72486;BME280;60509;47.308;-122.428;2023-05-07T07:20:00;100629.80;;;17.41;29.56
72486;BME280;60509;47.308;-122.428;2023-05-07T07:22:26;100631.12;;;16.67;29.56
72486;BME280;60509;47.308;-122.428;2023-05-07T07:24:52;100629.94;;;16.98;29.58
72486;BME280;60509;47.308;-122.428;2023-05-07T07:27:18;100630.60;;;16.64;29.68
72486;BME280;60509;47.308;-122.428;2023-05-07T07:29:43;100632.47;;;17.22;29.68
72486;BME280;60509;47.308;-122.428;2023-05-07T07:32:09;100634.95;;;16.74;29.62
72486;BME280;60509;47.308;-122.428;2023-05-07T07:34:35;100635.66;;;17.09;29.54
72486;BME280;60509;47.308;-122.428;2023-05-07T07:37:01;100638.92;;;16.86;29.46
72486;BME280;60509;47.308;-122.428;2023-05-07T07:39:27;100638.21;;;16.89;29.41
72486;BME280;60509;47.308;-122.428;2023-05-07T07:41:53;100638.67;;;17.00;29.44
72486;BME280;60509;47.308;-122.428;2023-05-07T07:44:19;100637.92;;;16.89;29.36
72486;BME280;60509;47.308;-122.428;2023-05-07T07:46:45;100641.08;;;17.32;29.19
72486;BME280;60509;47.308;-122.428;2023-05-07T07:49:11;100649.61;;;16.93;29.26
72486;BME280;60509;47.308;-122.428;2023-05-07T07:51:37;100653.75;;;17.23;29.25
72486;BME280;60509;47.308;-122.428;2023-05-07T07:54:03;100653.49;;;17.26;29.15
72486;BME280;60509;47.308;-122.428;2023-05-07T07:56:29;100653.85;;;16.71;29.13
72486;BME280;60509;47.308;-122.428;2023-05-07T07:58:55;100655.61;;;16.96;29.17
72486;BME280;60509;47.308;-122.428;2023-05-07T08:01:20;100658.32;;;17.07;29.02
72486;BME280;60509;47.308;-122.428;2023-05-07T08:03:46;100657.77;;;16.92;29.03
72486;BME280;60509;47.308;-122.428;2023-05-07T08:06:12;100658.72;;;16.65;29.03
72486;BME280;60509;47.308;-122.428;2023-05-07T08:08:38;100659.79;;;16.70;29.18
72486;BME280;60509;47.308;-122.428;2023-05-07T08:11:04;100661.10;;;16.96;29.11
72486;BME280;60509;47.308;-122.428;2023-05-07T08:13:30;100660.35;;;17.13;29.20
72486;BME280;60509;47.308;-122.428;2023-05-07T08:15:56;100661.78;;;16.89;29.13
72486;BME280;60509;47.308;-122.428;2023-05-07T08:18:22;100663.69;;;16.70;29.20
72486;BME280;60509;47.308;-122.428;2023-05-07T08:20:48;100663.66;;;16.92;29.13
72486;BME280;60509;47.308;-122.428;2023-05-07T08:23:13;100662.18;;;16.98;29.07
72486;BME280;60509;47.308;-122.428;2023-05-07T08:25:39;100663.58;;;16.67;29.22
72486;BME280;60509;47.308;-122.428;2023-05-07T08:28:05;100663.78;;;17.01;31.41
72486;BME280;60509;47.308;-122.428;2023-05-07T08:30:31;100664.63;;;17.45;32.26
72486;BME280;60509;47.308;-122.428;2023-05-07T08:32:57;100666.18;;;16.92;31.93
72486;BME280;60509;47.308;-122.428;2023-05-07T08:35:23;100665.63;;;17.49;32.04
72486;BME280;60509;47.308;-122.428;2023-05-07T08:37:49;100669.57;;;16.65;32.26
72486;BME280;60509;47.308;-122.428;2023-05-07T08:40:15;100667.86;;;16.81;32.04
72486;BME280;60509;47.308;-122.428;2023-05-07T08:42:41;100666.38;;;16.95;31.49
72486;BME280;60509;47.308;-122.428;2023-05-07T08:45:10;100669.59;;;17.08;31.60
72486;BME280;60509;47.308;-122.428;2023-05-07T08:47:38;100673.47;;;16.56;31.81
72486;BME280;60509;47.308;-122.428;2023-05-07T08:49:59;100671.28;;;17.11;31.47
72486;BME280;60509;47.308;-122.428;2023-05-07T08:52:25;100669.64;;;16.96;31.45
72486;BME280;60509;47.308;-122.428;2023-05-07T08:54:50;100671.15;;;16.69;31.53
72486;BME280;60509;47.308;-122.428;2023-05-07T08:57:16;100673.40;;;16.38;31.41
72486;BME280;60509;47.308;-122.428;2023-05-07T08:59:42;100677.08;;;16.72;31.48
72486;BME280;60509;47.308;-122.428;2023-05-07T09:02:10;100678.79;;;17.00;31.08
72486;BME280;60509;47.308;-122.428;2023-05-07T09:04:34;100676.09;;;16.97;31.16
72486;BME280;60509;47.308;-122.428;2023-05-07T09:07:00;100671.02;;;17.04;30.83
72486;BME280;60509;47.308;-122.428;2023-05-07T09:09:27;100669.60;;;17.05;30.83
72486;BME280;60509;47.308;-122.428;2023-05-07T09:11:57;100668.79;;;17.34;30.59
72486;BME280;60509;47.308;-122.428;2023-05-07T09:14:18;100667.84;;;17.17;30.96
72486;BME280;60509;47.308;-122.428;2023-05-07T09:16:43;100668.98;;;16.68;30.87
72486;BME280;60509;47.308;-122.428;2023-05-07T09:19:09;100670.19;;;16.68;31.15
72486;BME280;60509;47.308;-122.428;2023-05-07T09:21:35;100671.91;;;16.64;31.21
72486;BME280;60509;47.308;-122.428;2023-05-07T09:24:01;100671.19;;;16.72;31.03
72486;BME280;60509;47.308;-122.428;2023-05-07T09:26:27;100672.54;;;17.01;30.93
72486;BME280;60509;47.308;-122.428;2023-05-07T09:28:53;100673.81;;;16.92;30.78
72486;BME280;60509;47.308;-122.428;2023-05-07T09:31:19;100675.77;;;16.79;30.70
72486;BME280;60509;47.308;-122.428;2023-05-07T09:33:45;100678.94;;;16.81;30.64
72486;BME280;60509;47.308;-122.428;2023-05-07T09:36:11;100678.51;;;16.83;30.72
72486;BME280;60509;47.308;-122.428;2023-05-07T09:38:37;100682.16;;;17.06;30.43
72486;BME280;60509;47.308;-122.428;2023-05-07T09:41:04;100681.97;;;16.94;30.49
72486;BME280;60509;47.308;-122.428;2023-05-07T09:43:32;100682.98;;;17.10;30.45
72486;BME280;60509;47.308;-122.428;2023-05-07T09:45:55;100683.32;;;17.44;30.16
72486;BME280;60509;47.308;-122.428;2023-05-07T09:48:21;100685.37;;;16.58;30.54
72486;BME280;60509;47.308;-122.428;2023-05-07T09:50:50;100685.92;;;16.51;30.71
72486;BME280;60509;47.308;-122.428;2023-05-07T09:53:14;100688.48;;;16.60;30.53
72486;BME280;60509;47.308;-122.428;2023-05-07T09:55:39;100690.50;;;16.06;30.70
72486;BME280;60509;47.308;-122.428;2023-05-07T09:58:05;100690.60;;;16.35;30.64
72486;BME280;60509;47.308;-122.428;2023-05-07T10:00:31;100694.61;;;16.32;30.69
72486;BME280;60509;47.308;-122.428;2023-05-07T10:02:58;100693.07;;;16.51;30.42
72486;BME280;60509;47.308;-122.428;2023-05-07T10:05:23;100693.14;;;16.66;30.21
72486;BME280;60509;47.308;-122.428;2023-05-07T10:07:48;100690.60;;;16.92;30.26
72486;BME280;60509;47.308;-122.428;2023-05-07T10:10:15;100690.22;;;16.80;30.25
72486;BME280;60509;47.308;-122.428;2023-05-07T10:12:41;100691.69;;;16.72;30.14
72486;BME280;60509;47.308;-122.428;2023-05-07T10:15:07;100695.57;;;16.57;30.29
72486;BME280;60509;47.308;-122.428;2023-05-07T10:17:32;100692.66;;;17.04;30.18
72486;BME280;60509;47.308;-122.428;2023-05-07T10:19:58;100695.13;;;16.73;30.37
72486;BME280;60509;47.308;-122.428;2023-05-07T10:22:25;100693.53;;;16.83;30.33
72486;BME280;60509;47.308;-122.428;2023-05-07T10:24:53;100695.12;;;16.52;30.56
72486;BME280;60509;47.308;-122.428;2023-05-07T10:27:16;100696.60;;;16.46;30.42
72486;BME280;60509;47.308;-122.428;2023-05-07T10:29:49;100697.82;;;16.67;30.35
72486;BME280;60509;47.308;-122.428;2023-05-07T10:32:23;100698.49;;;16.58;30.35
72486;BME280;60509;47.308;-122.428;2023-05-07T10:34:37;100700.75;;;16.57;30.19
72486;BME280;60509;47.308;-122.428;2023-05-07T10:37:00;100702.32;;;16.26;30.30
72486;BME280;60509;47.308;-122.428;2023-05-07T10:39:25;100703.50;;;16.56;30.17
72486;BME280;60509;47.308;-122.428;2023-05-07T10:41:51;100707.40;;;16.21;30.38
72486;BME280;60509;47.308;-122.428;2023-05-07T10:44:27;100704.85;;;16.16;30.33
72486;BME280;60509;47.308;-122.428;2023-05-07T10:46:43;100709.31;;;16.64;30.10
72486;BME280;60509;47.308;-122.428;2023-05-07T10:49:10;100709.66;;;16.81;30.12
72486;BME280;60509;47.308;-122.428;2023-05-07T10:51:36;100712.77;;;16.76;30.13
72486;BME280;60509;47.308;-122.428;2023-05-07T10:54:22;100714.33;;;16.55;30.25
72486;BME280;60509;47.308;-122.428;2023-05-07T10:56:27;100713.60;;;16.15;30.58
72486;BME280;60509;47.308;-122.428;2023-05-07T10:58:53;100714.43;;;16.34;30.38
72486;BME280;60509;47.308;-122.428;2023-05-07T11:01:50;100715.60;;;16.26;30.39
72486;BME280;60509;47.308;-122.428;2023-05-07T11:04:14;100715.37;;;16.36;30.27
72486;BME280;60509;47.308;-122.428;2023-05-07T11:06:13;100714.62;;;16.24;30.25
72486;BME280;60509;47.308;-122.428;2023-05-07T11:09:09;100711.76;;;16.30;30.24
72486;BME280;60509;47.308;-122.428;2023-05-07T11:11:03;100715.29;;;16.17;30.27
72486;BME280;60509;47.308;-122.428;2023-05-07T11:13:43;100712.90;;;16.17;30.26
72486;BME280;60509;47.308;-122.428;2023-05-07T11:15:55;100713.42;;;16.62;30.01
72486;BME280;60509;47.308;-122.428;2023-05-07T11:18:20;100711.71;;;16.81;30.07
72486;BME280;60509;47.308;-122.428;2023-05-07T11:20:49;100709.40;;;16.66;30.01
72486;BME280;60509;47.308;-122.428;2023-05-07T11:23:58;100711.73;;;16.54;30.15
72486;BME280;60509;47.308;-122.428;2023-05-07T11:25:38;100713.73;;;16.37;30.46
72486;BME280;60509;47.308;-122.428;2023-05-07T11:28:07;100712.99;;;16.13;30.40
72486;BME280;60509;47.308;-122.428;2023-05-07T11:30:30;100709.93;;;16.05;30.36
72486;BME280;60509;47.308;-122.428;2023-05-07T11:32:56;100708.08;;;16.10;30.40
72486;BME280;60509;47.308;-122.428;2023-05-07T11:35:24;100706.99;;;16.28;30.31
72486;BME280;60509;47.308;-122.428;2023-05-07T11:37:48;100706.04;;;16.21;30.27
72486;BME280;60509;47.308;-122.428;2023-05-07T11:40:14;100706.59;;;15.80;30.42
72486;BME280;60509;47.308;-122.428;2023-05-07T11:42:41;100707.87;;;15.90;30.45
72486;BME280;60509;47.308;-122.428;2023-05-07T11:45:07;100707.75;;;15.91;30.41
72486;BME280;60509;47.308;-122.428;2023-05-07T11:47:32;100704.25;;;15.81;30.34
72486;BME280;60509;47.308;-122.428;2023-05-07T11:50:03;100706.11;;;16.54;30.20
72486;BME280;60509;47.308;-122.428;2023-05-07T11:52:24;100706.45;;;16.61;30.22
72486;BME280;60509;47.308;-122.428;2023-05-07T11:54:50;100705.23;;;16.51;30.27
72486;BME280;60509;47.308;-122.428;2023-05-07T11:57:16;100705.83;;;16.61;30.35
72486;BME280;60509;47.308;-122.428;2023-05-07T11:59:41;100703.79;;;16.04;30.52
72486;BME280;60509;47.308;-122.428;2023-05-07T12:02:08;100704.68;;;15.98;30.59
72486;BME280;60509;47.308;-122.428;2023-05-07T12:04:33;100708.32;;;16.16;30.56
72486;BME280;60509;47.308;-122.428;2023-05-07T12:06:59;100708.37;;;15.92;30.56
72486;BME280;60509;47.308;-122.428;2023-05-07T12:09:26;100708.26;;;15.82;30.49
72486;BME280;60509;47.308;-122.428;2023-05-07T12:11:52;100707.64;;;15.96;30.47
72486;BME280;60509;47.308;-122.428;2023-05-07T12:14:17;100706.91;;;15.92;30.36